createdAt,value
2022-12-13T00:00:40.693Z,76.32
2022-12-13T00:02:01.498Z,65.72
2022-12-13T00:03:22.091Z,66.22
2022-12-13T00:04:42.722Z,67.33
2022-12-13T00:06:06.326Z,66.43
2022-12-13T00:07:26.731Z,66.07
2022-12-13T00:08:47.302Z,72.37
2022-12-13T00:10:08.935Z,68.95
2022-12-13T00:11:29.481Z,64.10
2022-12-13T00:12:50.307Z,66.43
2022-12-13T00:14:11.762Z,72.60
2022-12-13T00:15:32.266Z,75.00
2022-12-13T00:16:52.877Z,63.13
2022-12-13T00:18:13.331Z,66.00
2022-12-13T00:19:33.807Z,60.55
2022-12-13T00:20:54.815Z,70.70
2022-12-13T00:22:16.722Z,71.80
2022-12-13T00:23:37.355Z,70.93
2022-12-13T00:24:58.101Z,64.50
2022-12-13T00:26:20.006Z,59.42
2022-12-13T00:27:40.346Z,62.95
2022-12-13T00:29:02.223Z,66.88
2022-12-13T00:30:22.864Z,68.85
2022-12-13T00:32:00.874Z,58.60
2022-12-13T00:33:22.042Z,67.97
2022-12-13T00:34:42.764Z,75.15
2022-12-13T00:36:03.959Z,71.43
2022-12-13T00:37:26.155Z,71.22
2022-12-13T00:38:46.861Z,64.63
2022-12-13T00:40:08.559Z,68.63
2022-12-13T00:41:30.847Z,68.80
2022-12-13T00:42:51.723Z,67.20
2022-12-13T00:44:13.034Z,68.75
2022-12-13T00:45:33.516Z,70.82
2022-12-13T00:46:53.952Z,63.80
2022-12-13T00:48:14.865Z,64.00
2022-12-13T00:49:35.227Z,59.83
2022-12-13T00:50:56.093Z,64.50
2022-12-13T00:52:16.701Z,62.33
2022-12-13T00:53:38.966Z,58.17
2022-12-13T00:54:59.348Z,61.85
2022-12-13T00:56:22.035Z,63.22
2022-12-13T00:57:42.485Z,57.85
2022-12-13T00:59:03.984Z,58.85
2022-12-13T01:00:24.760Z,68.63
2022-12-13T01:01:45.725Z,59.97
2022-12-13T01:03:06.509Z,68.43
2022-12-13T01:04:27.283Z,55.60
2022-12-13T01:06:14.339Z,56.88
2022-12-13T01:07:28.715Z,56.45
2022-12-13T01:08:50.779Z,58.88
2022-12-13T01:10:12.362Z,53.97
2022-12-13T01:11:32.660Z,63.10
2022-12-13T01:12:53.261Z,61.13
2022-12-13T01:14:13.983Z,69.00
2022-12-13T01:15:34.697Z,65.57
2022-12-13T01:16:55.680Z,60.13
2022-12-13T01:18:16.380Z,69.13
2022-12-13T01:19:36.728Z,58.17
2022-12-13T01:20:58.276Z,64.25
2022-12-13T01:22:19.070Z,63.78
2022-12-13T01:23:40.199Z,62.05
2022-12-13T01:25:02.296Z,58.17
2022-12-13T01:26:22.975Z,63.15
2022-12-13T01:27:43.564Z,59.65
2022-12-13T01:29:04.164Z,64.28
2022-12-13T01:30:24.926Z,65.70
2022-12-13T01:31:45.584Z,62.53
2022-12-13T01:33:13.971Z,62.65
2022-12-13T01:34:35.055Z,64.25
2022-12-13T01:35:56.700Z,59.15
2022-12-13T01:37:17.178Z,64.50
2022-12-13T01:38:38.376Z,63.28
2022-12-13T01:39:58.846Z,57.42
2022-12-13T01:41:28.563Z,60.58
2022-12-13T01:42:49.368Z,61.83
2022-12-13T01:44:43.587Z,60.97
2022-12-13T01:46:04.753Z,64.00
2022-12-13T01:47:29.051Z,61.92
2022-12-13T01:48:53.578Z,60.15
2022-12-13T01:50:15.766Z,69.45
2022-12-13T01:51:39.526Z,64.40
2022-12-13T01:53:00.609Z,68.55
2022-12-13T01:54:24.434Z,61.15
2022-12-13T01:55:57.007Z,62.55
2022-12-13T01:57:20.828Z,58.88
2022-12-13T01:58:42.676Z,64.13
2022-12-13T02:00:05.505Z,67.70
2022-12-13T02:01:26.175Z,62.88
2022-12-13T02:02:47.203Z,56.88
2022-12-13T02:04:08.256Z,60.70
2022-12-13T02:05:31.820Z,66.93
2022-12-13T02:06:53.048Z,65.72
2022-12-13T02:08:16.195Z,62.03
2022-12-13T02:09:36.423Z,59.92
2022-12-13T02:10:57.765Z,63.50
2022-12-13T02:12:19.749Z,63.70
2022-12-13T02:13:40.914Z,65.13
2022-12-13T02:15:03.981Z,72.70
2022-12-13T02:16:35.007Z,62.00
2022-12-13T02:18:06.830Z,67.97
2022-12-13T02:20:13.837Z,66.10
2022-12-13T02:21:49.511Z,58.05
2022-12-13T02:23:27.778Z,55.53
2022-12-13T02:25:03.583Z,62.10
2022-12-13T02:26:44.655Z,62.38
2022-12-13T02:28:30.171Z,59.97
2022-12-13T02:30:19.730Z,58.13
2022-12-13T02:31:45.353Z,71.68
2022-12-13T02:33:29.944Z,63.30
2022-12-13T02:34:55.637Z,61.00
2022-12-13T02:36:22.339Z,60.92
2022-12-13T02:37:48.317Z,59.80
2022-12-13T02:39:11.758Z,61.72
2022-12-13T02:40:34.709Z,62.78
2022-12-13T02:41:59.339Z,62.28
2022-12-13T02:43:23.616Z,62.75
2022-12-13T02:44:47.253Z,70.05
2022-12-13T02:46:11.564Z,59.38
2022-12-13T02:47:33.533Z,62.10
2022-12-13T02:48:55.326Z,59.08
2022-12-13T02:50:16.322Z,62.55
2022-12-13T02:51:36.880Z,64.93
2022-12-13T02:52:58.044Z,61.83
2022-12-13T02:55:40.841Z,61.63
2022-12-13T02:57:01.387Z,69.75
2022-12-13T02:58:24.088Z,62.33
2022-12-13T02:59:44.614Z,69.30
2022-12-13T03:01:28.489Z,69.97
2022-12-13T03:03:02.029Z,67.15
2022-12-13T03:04:31.077Z,69.13
2022-12-13T03:05:57.152Z,74.25
2022-12-13T03:07:22.303Z,66.15
2022-12-13T03:08:55.628Z,67.57
2022-12-13T03:10:20.608Z,61.97
2022-12-13T03:11:53.134Z,64.68
2022-12-13T03:13:17.181Z,70.20
2022-12-13T03:14:41.645Z,67.55
2022-12-13T03:16:09.537Z,61.53
2022-12-13T03:17:41.271Z,73.60
2022-12-13T03:19:03.671Z,61.05
2022-12-13T03:20:26.995Z,58.75
2022-12-13T03:21:49.544Z,67.32
2022-12-13T03:23:11.352Z,59.67
2022-12-13T03:24:32.172Z,57.40
2022-12-13T03:25:55.632Z,67.13
2022-12-13T03:27:16.199Z,60.55
2022-12-13T03:28:37.255Z,61.92
2022-12-13T03:29:58.415Z,56.92
2022-12-13T03:31:19.055Z,66.28
2022-12-13T03:32:40.949Z,64.53
2022-12-13T03:34:01.571Z,63.63
2022-12-13T03:35:22.878Z,62.17
2022-12-13T03:36:43.433Z,64.22
2022-12-13T03:38:04.189Z,60.20
2022-12-13T03:39:24.669Z,55.75
2022-12-13T03:40:45.202Z,69.22
2022-12-13T03:42:05.781Z,62.10
2022-12-13T03:43:26.637Z,62.50
2022-12-13T03:44:46.984Z,63.20
2022-12-13T03:46:08.280Z,58.53
2022-12-13T03:47:28.713Z,60.30
2022-12-13T03:48:50.600Z,60.05
2022-12-13T03:50:26.216Z,66.25
2022-12-13T03:51:47.979Z,63.47
2022-12-13T03:53:08.261Z,57.90
2022-12-13T03:54:45.100Z,58.10
2022-12-13T03:56:06.694Z,58.35
2022-12-13T03:57:26.954Z,60.90
2022-12-13T03:58:47.524Z,63.72
2022-12-13T04:00:09.646Z,63.08
2022-12-13T04:01:30.659Z,62.13
2022-12-13T04:02:51.344Z,63.35
2022-12-13T04:04:13.076Z,62.15
2022-12-13T04:05:33.884Z,62.58
2022-12-13T04:06:54.310Z,60.05
2022-12-13T04:08:21.764Z,64.40
2022-12-13T04:09:42.927Z,66.78
2022-12-13T04:11:03.702Z,63.95
2022-12-13T04:12:24.580Z,68.72
2022-12-13T04:13:45.423Z,60.13
2022-12-13T04:15:07.838Z,65.10
2022-12-13T04:16:28.465Z,67.90
2022-12-13T04:17:51.113Z,64.50
2022-12-13T04:19:13.268Z,68.95
2022-12-13T04:20:34.235Z,61.35
2022-12-13T04:21:55.035Z,66.88
2022-12-13T04:23:15.272Z,64.95
2022-12-13T04:24:35.970Z,62.15
2022-12-13T04:25:56.838Z,58.05
2022-12-13T04:27:17.340Z,60.10
2022-12-13T04:28:38.150Z,66.68
2022-12-13T04:29:58.897Z,64.60
2022-12-13T04:31:19.557Z,66.68
2022-12-13T04:32:40.131Z,65.43
2022-12-13T04:34:00.781Z,73.95
2022-12-13T04:35:22.666Z,67.93
2022-12-13T04:36:43.367Z,71.30
2022-12-13T04:38:04.141Z,64.18
2022-12-13T04:39:24.617Z,64.60
2022-12-13T04:40:45.173Z,71.83
2022-12-13T04:42:05.893Z,67.90
2022-12-13T04:43:26.580Z,67.90
2022-12-13T04:44:47.423Z,72.55
2022-12-13T04:46:08.084Z,66.70
2022-12-13T04:47:28.574Z,62.57
2022-12-13T04:48:49.153Z,66.70
2022-12-13T04:50:10.435Z,77.03
2022-12-13T04:51:32.455Z,66.40
2022-12-13T04:52:53.164Z,68.45
2022-12-13T04:54:24.091Z,68.73
2022-12-13T04:55:45.150Z,66.60
2022-12-13T04:57:06.611Z,67.55
2022-12-13T04:58:27.981Z,67.63
2022-12-13T04:59:48.632Z,71.40
2022-12-13T05:01:10.036Z,64.45
2022-12-13T05:02:30.840Z,69.75
2022-12-13T05:03:51.538Z,66.85
2022-12-13T05:05:12.855Z,67.03
2022-12-13T05:06:35.147Z,68.07
2022-12-13T05:07:56.128Z,65.93
2022-12-13T05:09:16.677Z,65.90
2022-12-13T05:10:38.374Z,75.28
2022-12-13T05:12:01.702Z,70.80
2022-12-13T05:13:22.650Z,68.35
2022-12-13T05:14:43.129Z,60.03
2022-12-13T05:16:06.226Z,69.63
2022-12-13T05:17:26.382Z,61.20
2022-12-13T05:18:47.046Z,64.40
2022-12-13T05:20:08.473Z,78.15
2022-12-13T05:21:28.982Z,62.35
2022-12-13T05:22:50.812Z,66.88
2022-12-13T05:24:11.351Z,68.72
2022-12-13T05:25:33.065Z,63.35
2022-12-13T05:26:53.614Z,68.68
2022-12-13T05:28:27.665Z,68.60
2022-12-13T05:29:49.153Z,63.97
2022-12-13T05:31:23.416Z,67.68
2022-12-13T05:32:48.120Z,63.55
2022-12-13T05:34:08.913Z,61.42
2022-12-13T05:35:29.636Z,65.50
2022-12-13T05:36:50.347Z,63.00
2022-12-13T05:38:12.506Z,66.07
2022-12-13T05:39:32.786Z,59.50
2022-12-13T05:40:53.268Z,61.15
2022-12-13T05:42:13.998Z,64.32
2022-12-13T05:43:42.801Z,61.28
2022-12-13T05:45:06.223Z,63.47
2022-12-13T05:46:26.607Z,69.28
2022-12-13T05:47:47.851Z,62.00
2022-12-13T05:49:08.497Z,62.38
2022-12-13T05:50:29.175Z,61.30
2022-12-13T05:51:49.657Z,55.70
2022-12-13T05:53:12.760Z,63.75
2022-12-13T05:54:33.795Z,60.35
2022-12-13T05:55:54.621Z,64.05
2022-12-13T05:57:15.619Z,62.67
2022-12-13T05:58:37.275Z,66.65
2022-12-13T05:59:58.346Z,61.83
2022-12-13T06:01:18.687Z,65.95
2022-12-13T06:02:39.365Z,73.97
2022-12-13T06:03:59.848Z,63.67
2022-12-13T06:05:20.344Z,65.60
2022-12-13T06:06:40.928Z,60.13
2022-12-13T06:08:01.644Z,68.80
2022-12-13T06:09:23.560Z,59.67
2022-12-13T06:10:43.780Z,61.00
2022-12-13T06:12:04.786Z,68.57
2022-12-13T06:13:45.137Z,58.05
2022-12-13T06:15:22.471Z,57.60
2022-12-13T06:16:43.401Z,66.53
2022-12-13T06:18:03.860Z,58.25
2022-12-13T06:19:24.949Z,65.45
2022-12-13T06:20:45.879Z,65.75
2022-12-13T06:22:06.551Z,58.00
2022-12-13T06:23:27.895Z,63.25
2022-12-13T06:24:49.518Z,58.60
2022-12-13T06:26:10.072Z,60.70
2022-12-13T06:27:30.715Z,65.18
2022-12-13T06:28:51.349Z,67.00
2022-12-13T06:30:12.996Z,72.50
2022-12-13T06:32:54.015Z,74.57
2022-12-13T06:34:15.497Z,65.50
2022-12-13T06:35:41.182Z,75.68
2022-12-13T06:37:02.863Z,70.95
2022-12-13T06:38:32.121Z,69.40
2022-12-13T06:39:54.558Z,69.82
2022-12-13T06:41:16.240Z,71.57
2022-12-13T06:42:36.790Z,66.65
2022-12-13T06:43:57.594Z,75.03
2022-12-13T06:45:18.375Z,75.72
2022-12-13T06:46:40.794Z,65.63
2022-12-13T06:48:01.330Z,76.57
2022-12-13T06:49:22.361Z,79.88
2022-12-13T06:50:43.068Z,79.30
2022-12-13T06:52:03.798Z,83.18
2022-12-13T06:53:24.505Z,75.90
2022-12-13T06:54:44.731Z,69.93
2022-12-13T06:56:09.044Z,77.45
2022-12-13T06:57:31.690Z,76.18
2022-12-13T06:58:52.663Z,76.75
2022-12-13T07:00:22.828Z,73.88
2022-12-13T07:01:45.039Z,73.60
2022-12-13T07:03:12.339Z,73.15
2022-12-13T07:04:33.945Z,70.70
2022-12-13T07:05:58.310Z,80.68
2022-12-13T07:07:19.125Z,82.15
2022-12-13T07:08:40.014Z,77.57
2022-12-13T07:10:00.515Z,79.60
2022-12-13T07:11:23.314Z,72.45
2022-12-13T07:12:44.201Z,70.72
2022-12-13T07:14:04.885Z,81.82
2022-12-13T07:15:25.525Z,85.90
2022-12-13T07:16:46.153Z,79.47
2022-12-13T07:18:06.791Z,74.85
2022-12-13T07:19:27.465Z,78.80
2022-12-13T07:20:56.204Z,79.38
2022-12-13T07:22:16.796Z,73.80
2022-12-13T07:23:38.414Z,71.47
2022-12-13T07:24:59.386Z,78.97
2022-12-13T07:26:21.564Z,67.63
2022-12-13T07:27:42.223Z,71.43
2022-12-13T07:29:03.737Z,65.88
2022-12-13T07:31:46.046Z,80.45
2022-12-13T07:33:06.772Z,74.72
2022-12-13T07:34:27.178Z,75.13
2022-12-13T07:35:48.034Z,75.57
2022-12-13T07:37:30.134Z,78.82
2022-12-13T07:38:52.617Z,70.72
2022-12-13T07:40:13.184Z,71.35
2022-12-13T07:41:35.142Z,73.70
2022-12-13T07:42:56.464Z,79.97
2022-12-13T07:45:37.516Z,69.72
2022-12-13T07:46:58.147Z,75.10
2022-12-13T07:48:19.136Z,82.60
2022-12-13T07:49:39.558Z,83.10
2022-12-13T07:51:02.181Z,81.30
2022-12-13T07:52:22.782Z,73.60
2022-12-13T07:53:43.254Z,69.88
2022-12-13T07:55:04.618Z,84.60
2022-12-13T07:56:25.468Z,72.85
2022-12-13T07:57:47.447Z,75.20
2022-12-13T07:59:09.307Z,69.55
2022-12-13T08:00:29.676Z,79.53
2022-12-13T08:01:50.584Z,75.00
2022-12-13T08:03:24.329Z,73.72
2022-12-13T08:04:46.382Z,74.55
2022-12-13T08:06:15.600Z,78.75
2022-12-13T08:07:36.353Z,77.35
2022-12-13T08:08:57.314Z,67.75
2022-12-13T08:10:17.676Z,73.80
2022-12-13T08:11:38.460Z,85.95
2022-12-13T08:13:01.961Z,73.43
2022-12-13T08:14:22.796Z,76.28
2022-12-13T08:15:43.503Z,74.53
2022-12-13T08:17:04.255Z,73.22
2022-12-13T08:18:24.944Z,67.55
2022-12-13T08:19:45.632Z,78.22
2022-12-13T08:21:18.538Z,76.75
2022-12-13T08:22:54.634Z,71.88
2022-12-13T08:24:22.979Z,80.55
2022-12-13T08:25:43.523Z,70.80
2022-12-13T08:27:04.348Z,65.35
2022-12-13T08:28:27.214Z,76.40
2022-12-13T08:29:47.925Z,70.35
2022-12-13T08:31:11.534Z,73.43
2022-12-13T08:32:32.462Z,74.22
2022-12-13T08:33:52.910Z,68.55
2022-12-13T08:35:13.774Z,69.60
2022-12-13T08:36:34.466Z,71.47
2022-12-13T08:37:55.011Z,74.43
2022-12-13T08:39:15.413Z,72.75
2022-12-13T08:40:36.122Z,78.00
2022-12-13T08:41:56.891Z,71.35
2022-12-13T08:43:17.621Z,68.73
2022-12-13T08:44:48.410Z,69.57
2022-12-13T08:46:09.275Z,79.13
2022-12-13T08:47:30.534Z,72.95
2022-12-13T08:48:53.191Z,80.55
2022-12-13T08:50:14.031Z,79.43
2022-12-13T08:51:35.732Z,77.20
2022-12-13T08:52:56.591Z,83.20
2022-12-13T08:54:31.482Z,72.35
2022-12-13T08:55:52.847Z,72.85
2022-12-13T08:57:13.467Z,80.97
2022-12-13T08:58:34.157Z,80.32
2022-12-13T08:59:56.204Z,78.18
2022-12-13T09:01:17.373Z,73.75
2022-12-13T09:02:38.792Z,77.72
2022-12-13T09:03:59.372Z,71.47
2022-12-13T09:05:32.311Z,81.57
2022-12-13T09:06:55.409Z,73.40
2022-12-13T09:08:23.966Z,80.05
2022-12-13T09:09:45.697Z,92.30
2022-12-13T09:11:11.196Z,85.95
2022-12-13T09:12:43.211Z,85.45
2022-12-13T09:14:03.732Z,85.20
2022-12-13T09:15:25.685Z,91.72
2022-12-13T09:16:55.095Z,90.05
2022-12-13T09:18:24.474Z,92.78
2022-12-13T09:19:45.973Z,83.43
2022-12-13T09:21:10.835Z,85.18
2022-12-13T09:22:34.257Z,86.13
2022-12-13T09:23:55.459Z,88.05
2022-12-13T09:25:24.355Z,83.18
2022-12-13T09:26:44.913Z,81.07
2022-12-13T09:28:06.546Z,83.80
2022-12-13T09:29:27.121Z,86.50
2022-12-13T09:30:49.291Z,74.22
2022-12-13T09:32:09.593Z,87.25
2022-12-13T09:33:31.305Z,95.15
2022-12-13T09:34:51.815Z,89.70
2022-12-13T09:36:14.419Z,93.03
2022-12-13T09:37:35.240Z,84.65
2022-12-13T09:38:55.737Z,94.70
2022-12-13T09:40:25.484Z,94.75
2022-12-13T09:41:49.087Z,83.20
2022-12-13T09:43:22.890Z,88.15
2022-12-13T09:45:02.164Z,88.75
2022-12-13T09:46:34.806Z,92.65
2022-12-13T09:48:13.444Z,80.55
2022-12-13T09:49:36.211Z,84.20
2022-12-13T09:51:18.452Z,86.10
2022-12-13T09:52:39.793Z,85.65
2022-12-13T09:54:00.845Z,85.85
2022-12-13T09:55:23.406Z,87.80
2022-12-13T09:56:43.708Z,84.68
2022-12-13T09:58:07.371Z,83.05
2022-12-13T09:59:30.110Z,85.65
2022-12-13T10:00:52.906Z,76.07
2022-12-13T10:02:17.850Z,81.82
2022-12-13T10:03:41.440Z,78.45
2022-12-13T10:05:22.190Z,84.75
2022-12-13T10:06:44.274Z,96.85
2022-12-13T10:08:07.116Z,79.35
2022-12-13T10:09:27.801Z,85.93
2022-12-13T10:10:50.008Z,92.15
2022-12-13T10:12:13.864Z,86.72
2022-12-13T10:13:38.868Z,83.40
2022-12-13T10:15:01.733Z,80.55
2022-12-13T10:16:27.711Z,87.75
2022-12-13T10:17:59.244Z,96.25
2022-12-13T10:19:29.369Z,82.07
2022-12-13T10:20:51.397Z,75.20
2022-12-13T10:22:14.920Z,82.57
2022-12-13T10:23:59.936Z,75.80
2022-12-13T10:25:16.011Z,89.20
2022-12-13T10:26:37.771Z,86.15
2022-12-13T10:27:58.269Z,90.95
2022-12-13T10:29:18.882Z,82.35
2022-12-13T10:30:40.728Z,98.25
2022-12-13T10:32:12.112Z,108.75
2022-12-13T10:33:35.704Z,89.65
2022-12-13T10:34:56.323Z,80.68
2022-12-13T10:36:31.258Z,83.30
2022-12-13T10:37:52.019Z,86.63
2022-12-13T10:39:16.714Z,86.32
2022-12-13T10:40:40.275Z,87.30
2022-12-13T10:42:03.297Z,88.95
2022-12-13T10:43:24.920Z,78.45
2022-12-13T10:44:45.897Z,88.15
2022-12-13T10:46:18.957Z,86.22
2022-12-13T10:47:46.223Z,84.95
2022-12-13T10:49:16.346Z,90.32
2022-12-13T10:50:36.882Z,85.00
2022-12-13T10:51:58.284Z,89.70
2022-12-13T10:53:18.630Z,85.38
2022-12-13T10:54:48.432Z,93.22
2022-12-13T10:56:09.416Z,82.20
2022-12-13T10:57:30.294Z,87.07
2022-12-13T10:58:53.787Z,88.40
2022-12-13T11:00:30.361Z,84.78
2022-12-13T11:01:50.798Z,86.15
2022-12-13T11:03:14.032Z,87.00
2022-12-13T11:04:35.740Z,89.55
2022-12-13T11:06:03.526Z,90.10
2022-12-13T11:07:27.490Z,89.10
2022-12-13T11:08:48.345Z,91.78
2022-12-13T11:10:26.638Z,79.13
2022-12-13T11:11:51.718Z,81.28
2022-12-13T11:13:24.765Z,83.50
2022-12-13T11:14:52.246Z,86.50
2022-12-13T11:16:21.630Z,80.55
2022-12-13T11:17:47.799Z,88.85
2022-12-13T11:19:18.128Z,83.90
2022-12-13T11:20:54.299Z,82.32
2022-12-13T11:22:21.010Z,81.93
2022-12-13T11:23:44.516Z,84.82
2022-12-13T11:25:08.738Z,79.38
2022-12-13T11:26:31.131Z,83.75
2022-12-13T11:28:03.402Z,80.25
2022-12-13T11:29:40.368Z,75.90
2022-12-13T11:31:11.442Z,80.00
2022-12-13T11:32:42.236Z,80.63
2022-12-13T11:34:12.058Z,74.13
2022-12-13T11:35:46.406Z,75.70
2022-12-13T11:37:15.215Z,83.28
2022-12-13T11:38:48.772Z,84.18
2022-12-13T11:40:13.702Z,72.13
2022-12-13T11:41:37.191Z,66.75
2022-12-13T11:43:00.233Z,80.65
2022-12-13T11:44:25.991Z,79.28
2022-12-13T11:45:51.702Z,84.80
2022-12-13T11:47:16.823Z,78.43
2022-12-13T11:48:43.402Z,77.38
2022-12-13T11:50:15.342Z,87.38
2022-12-13T11:51:43.306Z,77.75
2022-12-13T11:53:20.864Z,83.55
2022-12-13T11:54:48.723Z,86.70
2022-12-13T11:56:14.515Z,79.82
2022-12-13T11:57:41.995Z,80.80
2022-12-13T11:59:16.215Z,78.97
2022-12-13T12:00:45.372Z,78.63
2022-12-13T12:02:16.678Z,84.43
2022-12-13T12:03:41.840Z,74.38
2022-12-13T12:05:06.483Z,76.45
2022-12-13T12:06:30.371Z,83.65
2022-12-13T12:08:31.292Z,84.13
2022-12-13T12:09:36.777Z,82.80
2022-12-13T12:11:03.608Z,84.97
2022-12-13T12:12:27.548Z,74.50
2022-12-13T12:13:52.075Z,75.38
2022-12-13T12:15:17.692Z,82.75
2022-12-13T12:16:52.207Z,89.38
2022-12-13T12:18:14.128Z,84.88
2022-12-13T12:19:37.214Z,77.35
2022-12-13T12:21:06.302Z,73.35
2022-12-13T12:22:34.991Z,67.22
2022-12-13T12:24:10.880Z,73.20
2022-12-13T12:25:38.563Z,76.20
2022-12-13T12:27:22.269Z,83.10
2022-12-13T12:29:01.436Z,79.97
2022-12-13T12:30:24.315Z,75.50
2022-12-13T12:31:54.462Z,74.57
2022-12-13T12:33:23.074Z,75.70
2022-12-13T12:34:49.310Z,79.80
2022-12-13T12:36:32.023Z,72.60
2022-12-13T12:37:54.185Z,78.60
2022-12-13T12:39:34.739Z,82.32
2022-12-13T12:41:28.480Z,85.13
2022-12-13T12:43:13.999Z,82.70
2022-12-13T12:44:42.358Z,80.15
2022-12-13T12:46:15.972Z,74.53
2022-12-13T12:48:46.358Z,93.45
2022-12-13T12:49:49.506Z,75.63
2022-12-13T12:51:14.228Z,82.72
2022-12-13T12:52:43.076Z,78.47
2022-12-13T12:54:17.070Z,80.43
2022-12-13T12:55:48.189Z,82.65
2022-12-13T12:57:15.548Z,78.93
2022-12-13T12:58:42.330Z,75.03
2022-12-13T13:00:05.824Z,78.60
2022-12-13T13:01:43.897Z,80.90
2022-12-13T13:03:17.355Z,77.70
2022-12-13T13:04:48.047Z,85.57
2022-12-13T13:06:12.569Z,81.35
2022-12-13T13:07:39.835Z,86.68
2022-12-13T13:09:02.888Z,81.95
2022-12-13T13:10:26.180Z,84.28
2022-12-13T13:11:49.267Z,71.28
2022-12-13T13:13:35.427Z,77.53
2022-12-13T13:14:56.256Z,79.35
2022-12-13T13:16:30.477Z,93.40
2022-12-13T13:17:50.922Z,84.88
2022-12-13T13:19:41.070Z,81.50
2022-12-13T13:21:32.499Z,74.18
2022-12-13T13:23:17.668Z,78.90
2022-12-13T13:24:35.219Z,81.40
2022-12-13T13:27:40.613Z,89.30
2022-12-13T13:29:28.772Z,73.00
2022-12-13T13:31:02.549Z,80.70
2022-12-13T13:32:32.356Z,83.45
2022-12-13T13:33:53.117Z,81.72
2022-12-13T13:35:45.961Z,77.13
2022-12-13T13:37:27.571Z,83.72
2022-12-13T13:38:50.234Z,87.15
2022-12-13T13:40:30.390Z,91.85
2022-12-13T13:41:57.000Z,78.63
2022-12-13T13:43:32.175Z,79.20
2022-12-13T13:45:10.675Z,72.05
2022-12-13T13:46:31.092Z,75.85
2022-12-13T13:48:24.589Z,85.05
2022-12-13T13:49:59.933Z,76.57
2022-12-13T13:52:16.588Z,82.35
2022-12-13T13:54:14.857Z,75.10
2022-12-13T13:55:47.859Z,79.85
2022-12-13T13:58:08.926Z,79.90
2022-12-13T14:00:06.506Z,94.50
2022-12-13T14:02:01.583Z,88.40
2022-12-13T14:04:06.859Z,83.75
2022-12-13T14:06:07.010Z,78.53
2022-12-13T14:07:58.724Z,80.60
2022-12-13T14:09:50.253Z,86.82
2022-12-13T14:11:24.821Z,79.47
2022-12-13T14:13:40.020Z,82.22
2022-12-13T14:15:42.384Z,83.15
2022-12-13T14:17:48.510Z,84.18
2022-12-13T14:19:42.590Z,84.35
2022-12-13T14:21:24.329Z,100.60
2022-12-13T14:24:16.716Z,79.93
2022-12-13T14:25:52.323Z,82.72
2022-12-13T14:27:19.974Z,82.85
2022-12-13T14:28:47.421Z,79.30
2022-12-13T14:30:28.570Z,85.70
2022-12-13T14:31:50.020Z,80.82
2022-12-13T14:33:17.496Z,92.30
2022-12-13T14:34:39.845Z,84.55
2022-12-13T14:36:01.618Z,80.72
2022-12-13T14:37:25.992Z,86.13
2022-12-13T14:38:46.285Z,84.05
2022-12-13T14:40:26.116Z,86.33
2022-12-13T14:41:47.589Z,83.57
2022-12-13T14:43:24.005Z,84.85
2022-12-13T14:44:44.870Z,85.72
2022-12-13T14:46:06.992Z,81.68
2022-12-13T14:47:27.537Z,83.22
2022-12-13T14:48:49.960Z,86.05
2022-12-13T14:50:16.252Z,92.28
2022-12-13T14:51:38.356Z,76.13
2022-12-13T14:52:59.055Z,85.95
2022-12-13T14:54:25.922Z,82.97
2022-12-13T14:56:03.576Z,87.13
2022-12-13T14:57:25.866Z,81.90
2022-12-13T14:58:52.973Z,81.47
2022-12-13T15:00:25.242Z,79.85
2022-12-13T15:01:54.712Z,82.20
2022-12-13T15:03:22.595Z,83.90
2022-12-13T15:04:44.410Z,82.93
2022-12-13T15:07:28.865Z,83.38
2022-12-13T15:08:49.639Z,82.63
2022-12-13T15:10:21.738Z,78.53
2022-12-13T15:13:03.025Z,89.50
2022-12-13T15:14:24.402Z,80.90
2022-12-13T15:15:45.059Z,82.93
2022-12-13T15:17:05.654Z,88.18
2022-12-13T15:18:27.246Z,88.18
2022-12-13T15:19:48.536Z,82.65
2022-12-13T15:21:21.621Z,88.60
2022-12-13T15:22:42.409Z,83.70
2022-12-13T15:24:03.423Z,77.95
2022-12-13T15:25:23.925Z,83.97
2022-12-13T15:26:45.404Z,82.20
2022-12-13T15:28:06.923Z,86.18
2022-12-13T15:29:30.413Z,80.13
2022-12-13T15:30:51.306Z,85.68
2022-12-13T15:32:13.732Z,86.30
2022-12-13T15:33:39.327Z,87.90
2022-12-13T15:35:15.511Z,83.65
2022-12-13T15:36:37.809Z,82.30
2022-12-13T15:37:58.600Z,83.35
2022-12-13T15:39:19.189Z,83.88
2022-12-13T15:40:43.789Z,92.63
2022-12-13T15:42:04.585Z,83.63
2022-12-13T15:43:31.114Z,92.70
2022-12-13T15:44:54.054Z,87.28
2022-12-13T15:46:14.835Z,84.72
2022-12-13T15:47:35.417Z,80.90
2022-12-13T15:48:56.906Z,81.63
2022-12-13T15:51:58.989Z,82.03
2022-12-13T15:53:23.205Z,86.55
2022-12-13T15:54:55.511Z,85.82
2022-12-13T15:57:50.894Z,86.97
2022-12-13T15:59:25.531Z,92.25
2022-12-13T16:00:48.736Z,93.68
2022-12-13T16:02:15.577Z,96.05
2022-12-13T16:03:40.943Z,93.88
2022-12-13T16:05:08.978Z,85.65
2022-12-13T16:06:31.578Z,87.13
2022-12-13T16:07:56.728Z,87.38
2022-12-13T16:09:19.914Z,86.32
2022-12-13T16:10:46.479Z,87.63
2022-12-13T16:12:07.513Z,84.25
2022-12-13T16:14:50.160Z,89.38
2022-12-13T16:16:27.037Z,93.18
2022-12-13T16:17:50.464Z,91.50
2022-12-13T16:19:17.917Z,89.07
2022-12-13T16:20:38.842Z,89.03
2022-12-13T16:21:59.219Z,85.60
2022-12-13T16:23:26.936Z,83.13
2022-12-13T16:24:48.628Z,94.32
2022-12-13T16:26:10.946Z,93.25
2022-12-13T16:27:32.012Z,83.38
2022-12-13T16:28:52.774Z,89.82
2022-12-13T16:30:15.840Z,92.82
2022-12-13T16:31:36.638Z,91.80
2022-12-13T16:33:18.068Z,91.32
2022-12-13T16:34:38.006Z,88.63
2022-12-13T16:35:58.566Z,89.82
2022-12-13T16:37:25.561Z,81.35
2022-12-13T16:38:47.788Z,84.57
2022-12-13T16:40:23.634Z,87.80
2022-12-13T16:41:46.047Z,89.90
2022-12-13T16:43:07.551Z,97.00
2022-12-13T16:45:53.692Z,89.00
2022-12-13T16:47:22.336Z,93.60
2022-12-13T16:48:47.543Z,86.78
2022-12-13T16:50:13.887Z,83.60
2022-12-13T16:51:34.636Z,94.90
2022-12-13T16:52:55.372Z,87.47
2022-12-13T16:54:18.248Z,87.55
2022-12-13T16:55:38.704Z,88.00
2022-12-13T16:56:59.379Z,86.00
2022-12-13T16:58:20.202Z,91.50
2022-12-13T16:59:40.575Z,94.47
2022-12-13T17:01:01.083Z,87.55
2022-12-13T17:02:21.598Z,99.50
2022-12-13T17:03:41.846Z,92.63
2022-12-13T17:05:03.060Z,91.35
2022-12-13T17:06:24.306Z,101.65
2022-12-13T17:07:45.746Z,100.82
2022-12-13T17:09:06.565Z,92.50
2022-12-13T17:10:28.628Z,92.88
2022-12-13T17:11:49.516Z,96.15
2022-12-13T17:13:10.374Z,88.95
2022-12-13T17:14:30.839Z,92.55
2022-12-13T17:15:59.006Z,90.90
2022-12-13T17:17:20.227Z,96.60
2022-12-13T17:18:43.326Z,93.32
2022-12-13T17:20:05.081Z,98.30
2022-12-13T17:21:26.417Z,92.55
2022-12-13T17:22:47.452Z,93.20
2022-12-13T17:24:08.220Z,97.78
2022-12-13T17:25:30.211Z,95.88
2022-12-13T17:26:54.477Z,96.95
2022-12-13T17:28:15.731Z,93.60
2022-12-13T17:29:36.262Z,96.72
2022-12-13T17:31:04.748Z,101.32
2022-12-13T17:32:25.316Z,89.32
2022-12-13T17:33:46.160Z,97.82
2022-12-13T17:35:07.352Z,108.57
2022-12-13T17:36:27.766Z,93.78
2022-12-13T17:37:48.191Z,99.53
2022-12-13T17:39:08.693Z,95.93
2022-12-13T17:40:30.818Z,98.10
2022-12-13T17:41:55.369Z,101.30
2022-12-13T17:43:26.241Z,100.85
2022-12-13T17:44:54.035Z,99.75
2022-12-13T17:46:16.526Z,102.82
2022-12-13T17:47:37.107Z,99.45
2022-12-13T17:48:57.434Z,102.03
2022-12-13T17:50:18.258Z,94.63
2022-12-13T17:51:38.967Z,89.60
2022-12-13T17:52:59.718Z,100.40
2022-12-13T17:54:20.755Z,104.17
2022-12-13T17:55:42.688Z,89.70
2022-12-13T17:57:03.241Z,97.68
2022-12-13T17:58:25.174Z,91.68
2022-12-13T17:59:46.119Z,97.05
2022-12-13T18:01:11.563Z,102.90
2022-12-13T18:02:32.258Z,99.32
2022-12-13T18:03:54.409Z,97.38
2022-12-13T18:05:18.046Z,101.65
2022-12-13T18:06:38.979Z,102.57
2022-12-13T18:07:59.233Z,102.13
2022-12-13T18:09:19.645Z,110.65
2022-12-13T18:10:41.681Z,101.35
2022-12-13T18:12:02.179Z,98.57
2022-12-13T18:13:23.688Z,97.40
2022-12-13T18:14:44.321Z,97.68
2022-12-13T18:16:05.507Z,97.40
2022-12-13T18:17:46.589Z,91.15
2022-12-13T18:19:07.223Z,103.28
2022-12-13T18:21:47.831Z,98.50
2022-12-13T18:23:08.084Z,90.90
2022-12-13T18:24:28.620Z,101.35
2022-12-13T18:25:50.736Z,101.53
2022-12-13T18:27:11.423Z,103.10
2022-12-13T18:28:31.716Z,96.15
2022-12-13T18:29:55.298Z,92.18
2022-12-13T18:31:18.299Z,92.75
2022-12-13T18:32:40.166Z,98.22
2022-12-13T18:34:00.475Z,100.25